sensor_id;sensor_type;location;lat;lon;timestamp;temperature;humidity
4596;DHT22;2310;49.978;8.742;2023-06-10T00:02:55;22.40;99.60
4596;DHT22;2310;49.978;8.742;2023-06-10T00:06:57;22.40;99.60
4596;DHT22;2310;49.978;8.742;2023-06-10T00:10:58;22.20;99.80
4596;DHT22;2310;49.978;8.742;2023-06-10T00:15:04;22.10;99.90
4596;DHT22;2310;49.978;8.742;2023-06-10T00:19:06;22.00;99.90
4596;DHT22;2310;49.978;8.742;2023-06-10T00:23:09;21.80;99.90
4596;DHT22;2310;49.978;8.742;2023-06-10T00:27:10;21.60;99.90
4596;DHT22;2310;49.978;8.742;2023-06-10T00:31:12;21.60;99.90
4596;DHT22;2310;49.978;8.742;2023-06-10T00:35:13;21.50;99.90
4596;DHT22;2310;49.978;8.742;2023-06-10T00:39:15;21.40;99.90
4596;DHT22;2310;49.978;8.742;2023-06-10T00:43:17;21.40;99.90
4596;DHT22;2310;49.978;8.742;2023-06-10T00:47:19;21.30;99.90
4596;DHT22;2310;49.978;8.742;2023-06-10T00:51:21;21.20;99.90
4596;DHT22;2310;49.978;8.742;2023-06-10T00:55:23;21.10;99.90
4596;DHT22;2310;49.978;8.742;2023-06-10T00:59:32;21.00;99.90
4596;DHT22;2310;49.978;8.742;2023-06-10T01:03:30;21.00;99.90
4596;DHT22;2310;49.978;8.742;2023-06-10T01:12:19;20.80;99.90
4596;DHT22;2310;49.978;8.742;2023-06-10T01:16:22;20.90;99.90
4596;DHT22;2310;49.978;8.742;2023-06-10T01:20:28;20.70;99.90
4596;DHT22;2310;49.978;8.742;2023-06-10T01:24:28;20.70;99.90
4596;DHT22;2310;49.978;8.742;2023-06-10T01:28:33;20.60;99.90
4596;DHT22;2310;49.978;8.742;2023-06-10T01:32:40;20.50;99.90
4596;DHT22;2310;49.978;8.742;2023-06-10T01:36:47;20.50;99.90
4596;DHT22;2310;49.978;8.742;2023-06-10T01:40:49;20.60;99.90
4596;DHT22;2310;49.978;8.742;2023-06-10T01:44:51;20.50;99.90
4596;DHT22;2310;49.978;8.742;2023-06-10T01:48:53;20.50;99.90
4596;DHT22;2310;49.978;8.742;2023-06-10T01:52:57;20.40;99.90
4596;DHT22;2310;49.978;8.742;2023-06-10T01:56:59;20.40;99.90
4596;DHT22;2310;49.978;8.742;2023-06-10T02:01:00;20.40;99.90
4596;DHT22;2310;49.978;8.742;2023-06-10T02:05:04;20.30;99.90
4596;DHT22;2310;49.978;8.742;2023-06-10T02:09:07;20.20;99.90
4596;DHT22;2310;49.978;8.742;2023-06-10T02:13:08;20.20;99.90
4596;DHT22;2310;49.978;8.742;2023-06-10T02:17:10;20.10;99.90
4596;DHT22;2310;49.978;8.742;2023-06-10T02:21:13;20.20;99.90
4596;DHT22;2310;49.978;8.742;2023-06-10T02:25:14;20.10;99.90
4596;DHT22;2310;49.978;8.742;2023-06-10T02:29:16;20.10;99.90
4596;DHT22;2310;49.978;8.742;2023-06-10T02:33:17;20.10;99.90
4596;DHT22;2310;49.978;8.742;2023-06-10T02:37:19;20.00;99.90
4596;DHT22;2310;49.978;8.742;2023-06-10T02:41:21;20.00;99.90
4596;DHT22;2310;49.978;8.742;2023-06-10T02:45:23;20.00;99.90
4596;DHT22;2310;49.978;8.742;2023-06-10T02:49:24;19.90;99.90
4596;DHT22;2310;49.978;8.742;2023-06-10T02:53:25;19.90;99.90
4596;DHT22;2310;49.978;8.742;2023-06-10T02:57:27;20.00;99.90
4596;DHT22;2310;49.978;8.742;2023-06-10T03:01:28;20.00;99.90
4596;DHT22;2310;49.978;8.742;2023-06-10T03:05:30;20.00;99.90
4596;DHT22;2310;49.978;8.742;2023-06-10T03:09:31;19.90;99.90
4596;DHT22;2310;49.978;8.742;2023-06-10T03:13:32;19.70;99.90
4596;DHT22;2310;49.978;8.742;2023-06-10T03:17:34;19.80;99.90
4596;DHT22;2310;49.978;8.742;2023-06-10T03:21:35;20.00;99.90
4596;DHT22;2310;49.978;8.742;2023-06-10T03:25:38;20.00;99.90
4596;DHT22;2310;49.978;8.742;2023-06-10T03:29:39;20.10;99.90
4596;DHT22;2310;49.978;8.742;2023-06-10T03:33:41;20.10;99.90
4596;DHT22;2310;49.978;8.742;2023-06-10T03:37:43;20.10;99.90
4596;DHT22;2310;49.978;8.742;2023-06-10T03:41:45;20.10;99.90
4596;DHT22;2310;49.978;8.742;2023-06-10T03:45:46;20.10;99.90
4596;DHT22;2310;49.978;8.742;2023-06-10T03:49:49;20.10;99.90
4596;DHT22;2310;49.978;8.742;2023-06-10T03:53:50;20.10;99.90
4596;DHT22;2310;49.978;8.742;2023-06-10T03:57:52;19.90;99.90
4596;DHT22;2310;49.978;8.742;2023-06-10T04:01:53;19.90;99.90
4596;DHT22;2310;49.978;8.742;2023-06-10T04:05:55;19.80;99.90
4596;DHT22;2310;49.978;8.742;2023-06-10T04:09:56;19.80;99.90
4596;DHT22;2310;49.978;8.742;2023-06-10T04:13:59;19.80;99.90
4596;DHT22;2310;49.978;8.742;2023-06-10T04:18:00;19.50;99.90
4596;DHT22;2310;49.978;8.742;2023-06-10T04:22:05;19.80;99.90
4596;DHT22;2310;49.978;8.742;2023-06-10T04:26:07;20.00;99.90
4596;DHT22;2310;49.978;8.742;2023-06-10T04:30:09;20.20;99.90
4596;DHT22;2310;49.978;8.742;2023-06-10T04:34:10;20.40;99.90
4596;DHT22;2310;49.978;8.742;2023-06-10T04:38:12;20.80;99.90
4596;DHT22;2310;49.978;8.742;2023-06-10T04:42:14;21.30;99.90
4596;DHT22;2310;49.978;8.742;2023-06-10T04:46:15;21.50;99.90
4596;DHT22;2310;49.978;8.742;2023-06-10T04:50:16;22.10;99.90
4596;DHT22;2310;49.978;8.742;2023-06-10T04:54:17;22.20;99.90
4596;DHT22;2310;49.978;8.742;2023-06-10T04:58:19;22.60;99.90
4596;DHT22;2310;49.978;8.742;2023-06-10T05:02:20;23.00;99.70
4596;DHT22;2310;49.978;8.742;2023-06-10T05:06:22;23.10;99.90
4596;DHT22;2310;49.978;8.742;2023-06-10T05:10:24;23.10;99.30
4596;DHT22;2310;49.978;8.742;2023-06-10T05:14:25;22.90;99.50
4596;DHT22;2310;49.978;8.742;2023-06-10T05:18:27;23.40;96.50
4596;DHT22;2310;49.978;8.742;2023-06-10T05:22:28;23.40;94.40
4596;DHT22;2310;49.978;8.742;2023-06-10T05:26:29;23.10;97.70
4596;DHT22;2310;49.978;8.742;2023-06-10T05:30:32;23.00;96.30
4596;DHT22;2310;49.978;8.742;2023-06-10T05:34:34;23.20;97.00
4596;DHT22;2310;49.978;8.742;2023-06-10T05:38:35;23.20;96.00
4596;DHT22;2310;49.978;8.742;2023-06-10T05:42:36;23.20;97.50
4596;DHT22;2310;49.978;8.742;2023-06-10T05:46:38;23.10;99.90
4596;DHT22;2310;49.978;8.742;2023-06-10T05:50:39;23.00;99.90
4596;DHT22;2310;49.978;8.742;2023-06-10T05:54:43;23.10;99.90
4596;DHT22;2310;49.978;8.742;2023-06-10T05:58:44;23.00;99.40
4596;DHT22;2310;49.978;8.742;2023-06-10T06:02:45;23.00;98.90
4596;DHT22;2310;49.978;8.742;2023-06-10T06:06:47;22.90;99.70
4596;DHT22;2310;49.978;8.742;2023-06-10T06:10:48;23.20;98.30
4596;DHT22;2310;49.978;8.742;2023-06-10T06:14:50;23.30;97.10
4596;DHT22;2310;49.978;8.742;2023-06-10T06:18:51;23.00;99.90
4596;DHT22;2310;49.978;8.742;2023-06-10T06:22:52;23.00;99.90
4596;DHT22;2310;49.978;8.742;2023-06-10T06:26:54;23.00;99.90
4596;DHT22;2310;49.978;8.742;2023-06-10T06:30:56;23.20;99.90
4596;DHT22;2310;49.978;8.742;2023-06-10T06:34:57;23.40;99.90
4596;DHT22;2310;49.978;8.742;2023-06-10T06:38:59;23.90;97.20
4596;DHT22;2310;49.978;8.742;2023-06-10T06:43:01;24.30;95.40
4596;DHT22;2310;49.978;8.742;2023-06-10T06:47:02;24.20;92.70
4596;DHT22;2310;49.978;8.742;2023-06-10T06:51:04;23.90;92.90
4596;DHT22;2310;49.978;8.742;2023-06-10T06:55:07;23.90;95.10
4596;DHT22;2310;49.978;8.742;2023-06-10T06:59:09;24.00;91.70
4596;DHT22;2310;49.978;8.742;2023-06-10T07:03:11;24.20;92.60
4596;DHT22;2310;49.978;8.742;2023-06-10T07:07:12;24.50;93.10
4596;DHT22;2310;49.978;8.742;2023-06-10T07:11:13;24.40;93.90
4596;DHT22;2310;49.978;8.742;2023-06-10T07:15:15;24.40;94.10
4596;DHT22;2310;49.978;8.742;2023-06-10T07:19:16;24.40;92.20
4596;DHT22;2310;49.978;8.742;2023-06-10T07:23:18;24.50;89.30
4596;DHT22;2310;49.978;8.742;2023-06-10T07:27:19;24.50;85.20
4596;DHT22;2310;49.978;8.742;2023-06-10T07:31:20;24.40;89.60
4596;DHT22;2310;49.978;8.742;2023-06-10T07:35:23;24.30;88.20
4596;DHT22;2310;49.978;8.742;2023-06-10T07:39:24;24.40;88.70
4596;DHT22;2310;49.978;8.742;2023-06-10T07:43:27;24.30;87.00
4596;DHT22;2310;49.978;8.742;2023-06-10T07:47:28;24.60;87.90
4596;DHT22;2310;49.978;8.742;2023-06-10T07:51:30;24.90;88.70
4596;DHT22;2310;49.978;8.742;2023-06-10T07:55:32;25.10;89.20
4596;DHT22;2310;49.978;8.742;2023-06-10T07:59:33;25.40;84.50
4596;DHT22;2310;49.978;8.742;2023-06-10T08:03:35;25.60;81.60
4596;DHT22;2310;49.978;8.742;2023-06-10T08:07:36;26.10;79.40
4596;DHT22;2310;49.978;8.742;2023-06-10T08:11:40;26.40;74.70
4596;DHT22;2310;49.978;8.742;2023-06-10T08:15:41;26.50;72.60
4596;DHT22;2310;49.978;8.742;2023-06-10T08:19:43;26.70;72.80
4596;DHT22;2310;49.978;8.742;2023-06-10T08:23:46;27.00;72.60
4596;DHT22;2310;49.978;8.742;2023-06-10T08:27:47;27.60;68.60
4596;DHT22;2310;49.978;8.742;2023-06-10T08:31:49;28.10;63.80
4596;DHT22;2310;49.978;8.742;2023-06-10T08:35:52;28.40;61.30
4596;DHT22;2310;49.978;8.742;2023-06-10T08:39:53;28.50;59.60
4596;DHT22;2310;49.978;8.742;2023-06-10T08:44:08;28.10;61.10
4596;DHT22;2310;49.978;8.742;2023-06-10T08:48:07;28.70;59.50
4596;DHT22;2310;49.978;8.742;2023-06-10T08:52:14;29.20;59.70
4596;DHT22;2310;49.978;8.742;2023-06-10T08:56:17;28.90;57.50
4596;DHT22;2310;49.978;8.742;2023-06-10T09:00:19;29.20;57.50
4596;DHT22;2310;49.978;8.742;2023-06-10T09:04:21;29.40;57.00
4596;DHT22;2310;49.978;8.742;2023-06-10T09:08:26;29.90;54.80
4596;DHT22;2310;49.978;8.742;2023-06-10T09:12:28;29.60;55.10
4596;DHT22;2310;49.978;8.742;2023-06-10T09:16:29;30.10;55.50
4596;DHT22;2310;49.978;8.742;2023-06-10T09:20:30;30.50;53.20
4596;DHT22;2310;49.978;8.742;2023-06-10T09:24:32;30.80;51.60
4596;DHT22;2310;49.978;8.742;2023-06-10T09:28:34;30.90;51.70
4596;DHT22;2310;49.978;8.742;2023-06-10T09:32:40;31.30;50.20
4596;DHT22;2310;49.978;8.742;2023-06-10T09:36:42;31.50;52.40
4596;DHT22;2310;49.978;8.742;2023-06-10T09:40:53;31.80;48.80
4596;DHT22;2310;49.978;8.742;2023-06-10T09:44:56;31.80;49.90
4596;DHT22;2310;49.978;8.742;2023-06-10T09:48:58;32.30;47.00
4596;DHT22;2310;49.978;8.742;2023-06-10T09:52:59;32.60;46.30
4596;DHT22;2310;49.978;8.742;2023-06-10T09:57:06;32.70;45.40
4596;DHT22;2310;49.978;8.742;2023-06-10T10:01:11;31.60;44.50
4596;DHT22;2310;49.978;8.742;2023-06-10T10:05:14;30.60;47.50
4596;DHT22;2310;49.978;8.742;2023-06-10T10:09:17;31.40;47.30
4596;DHT22;2310;49.978;8.742;2023-06-10T10:13:18;31.20;47.30
4596;DHT22;2310;49.978;8.742;2023-06-10T10:17:20;31.20;47.80
4596;DHT22;2310;49.978;8.742;2023-06-10T10:21:26;30.50;44.00
4596;DHT22;2310;49.978;8.742;2023-06-10T10:25:30;30.50;47.00
4596;DHT22;2310;49.978;8.742;2023-06-10T10:29:39;30.20;49.60
4596;DHT22;2310;49.978;8.742;2023-06-10T10:33:57;30.60;47.80
4596;DHT22;2310;49.978;8.742;2023-06-10T10:37:59;31.40;46.40
4596;DHT22;2310;49.978;8.742;2023-06-10T10:42:01;32.60;45.00
4596;DHT22;2310;49.978;8.742;2023-06-10T10:46:11;32.70;43.30
4596;DHT22;2310;49.978;8.742;2023-06-10T10:50:18;32.10;43.00
4596;DHT22;2310;49.978;8.742;2023-06-10T10:54:29;31.90;41.70
4596;DHT22;2310;49.978;8.742;2023-06-10T10:58:31;31.80;42.30
4596;DHT22;2310;49.978;8.742;2023-06-10T11:02:36;32.00;39.50
4596;DHT22;2310;49.978;8.742;2023-06-10T11:06:39;31.80;40.30
4596;DHT22;2310;49.978;8.742;2023-06-10T11:10:53;32.10;40.10
4596;DHT22;2310;49.978;8.742;2023-06-10T11:14:54;32.00;41.10
4596;DHT22;2310;49.978;8.742;2023-06-10T11:18:56;31.40;40.20
4596;DHT22;2310;49.978;8.742;2023-06-10T11:22:58;30.90;39.80
4596;DHT22;2310;49.978;8.742;2023-06-10T11:31:22;30.60;39.10
4596;DHT22;2310;49.978;8.742;2023-06-10T11:35:25;30.90;38.20
4596;DHT22;2310;49.978;8.742;2023-06-10T11:39:27;30.70;37.10
4596;DHT22;2310;49.978;8.742;2023-06-10T11:43:29;31.10;37.10
4596;DHT22;2310;49.978;8.742;2023-06-10T11:47:31;30.90;38.40
4596;DHT22;2310;49.978;8.742;2023-06-10T11:51:34;30.90;37.80
4596;DHT22;2310;49.978;8.742;2023-06-10T11:55:42;30.50;37.60
4596;DHT22;2310;49.978;8.742;2023-06-10T11:59:44;30.10;37.00
4596;DHT22;2310;49.978;8.742;2023-06-10T12:03:45;30.60;38.00
4596;DHT22;2310;49.978;8.742;2023-06-10T12:07:47;31.50;37.50
4596;DHT22;2310;49.978;8.742;2023-06-10T12:16:09;31.30;35.40
4596;DHT22;2310;49.978;8.742;2023-06-10T12:20:27;31.00;35.70
4596;DHT22;2310;49.978;8.742;2023-06-10T12:24:29;31.50;36.70
4596;DHT22;2310;49.978;8.742;2023-06-10T12:28:30;31.70;37.60
4596;DHT22;2310;49.978;8.742;2023-06-10T12:32:45;31.40;36.40
4596;DHT22;2310;49.978;8.742;2023-06-10T12:36:51;32.20;39.40
4596;DHT22;2310;49.978;8.742;2023-06-10T12:40:53;32.30;36.00
4596;DHT22;2310;49.978;8.742;2023-06-10T12:44:55;31.90;37.00
4596;DHT22;2310;49.978;8.742;2023-06-10T12:48:58;32.10;35.80
4596;DHT22;2310;49.978;8.742;2023-06-10T12:53:01;32.30;37.30
4596;DHT22;2310;49.978;8.742;2023-06-10T12:57:03;32.10;37.20
4596;DHT22;2310;49.978;8.742;2023-06-10T13:01:04;32.30;34.80
4596;DHT22;2310;49.978;8.742;2023-06-10T13:05:06;32.50;35.90
4596;DHT22;2310;49.978;8.742;2023-06-10T13:09:11;32.90;35.80
4596;DHT22;2310;49.978;8.742;2023-06-10T13:13:12;33.00;35.90
4596;DHT22;2310;49.978;8.742;2023-06-10T13:17:15;33.00;35.90
4596;DHT22;2310;49.978;8.742;2023-06-10T13:21:16;31.80;36.30
4596;DHT22;2310;49.978;8.742;2023-06-10T13:25:18;32.00;36.80
4596;DHT22;2310;49.978;8.742;2023-06-10T13:29:21;32.40;36.30
4596;DHT22;2310;49.978;8.742;2023-06-10T13:33:23;31.90;36.20
4596;DHT22;2310;49.978;8.742;2023-06-10T13:37:25;31.50;36.70
4596;DHT22;2310;49.978;8.742;2023-06-10T13:41:27;30.80;36.90
4596;DHT22;2310;49.978;8.742;2023-06-10T13:45:29;30.30;37.80
4596;DHT22;2310;49.978;8.742;2023-06-10T13:49:32;29.90;38.00
4596;DHT22;2310;49.978;8.742;2023-06-10T13:53:33;29.80;38.50
4596;DHT22;2310;49.978;8.742;2023-06-10T13:57:35;30.60;39.40
4596;DHT22;2310;49.978;8.742;2023-06-10T14:01:37;31.60;40.60
4596;DHT22;2310;49.978;8.742;2023-06-10T14:05:39;31.60;38.60
4596;DHT22;2310;49.978;8.742;2023-06-10T14:09:41;32.80;37.90
4596;DHT22;2310;49.978;8.742;2023-06-10T14:13:42;32.70;36.80
4596;DHT22;2310;49.978;8.742;2023-06-10T14:17:45;33.30;36.30
4596;DHT22;2310;49.978;8.742;2023-06-10T14:21:48;32.90;35.90
4596;DHT22;2310;49.978;8.742;2023-06-10T14:25:51;32.80;36.50
4596;DHT22;2310;49.978;8.742;2023-06-10T14:29:54;31.70;37.00
4596;DHT22;2310;49.978;8.742;2023-06-10T14:33:56;30.90;39.30
4596;DHT22;2310;49.978;8.742;2023-06-10T14:37:58;30.30;40.40
4596;DHT22;2310;49.978;8.742;2023-06-10T14:42:00;30.00;41.50
4596;DHT22;2310;49.978;8.742;2023-06-10T14:46:02;29.80;42.00
4596;DHT22;2310;49.978;8.742;2023-06-10T14:50:05;30.10;42.90
4596;DHT22;2310;49.978;8.742;2023-06-10T14:54:07;30.50;41.60
4596;DHT22;2310;49.978;8.742;2023-06-10T14:58:08;30.30;40.40
4596;DHT22;2310;49.978;8.742;2023-06-10T15:02:12;30.30;41.20
4596;DHT22;2310;49.978;8.742;2023-06-10T15:06:13;30.60;40.00
4596;DHT22;2310;49.978;8.742;2023-06-10T15:10:16;31.00;42.10
4596;DHT22;2310;49.978;8.742;2023-06-10T15:14:21;31.20;39.60
4596;DHT22;2310;49.978;8.742;2023-06-10T15:18:23;31.40;40.00
4596;DHT22;2310;49.978;8.742;2023-06-10T15:22:26;31.50;39.50
4596;DHT22;2310;49.978;8.742;2023-06-10T15:26:27;31.80;39.70
4596;DHT22;2310;49.978;8.742;2023-06-10T15:30:31;31.60;37.90
4596;DHT22;2310;49.978;8.742;2023-06-10T15:34:33;31.70;38.20
4596;DHT22;2310;49.978;8.742;2023-06-10T15:38:34;31.90;38.50
4596;DHT22;2310;49.978;8.742;2023-06-10T15:42:36;31.60;38.40
4596;DHT22;2310;49.978;8.742;2023-06-10T15:46:37;31.60;36.90
4596;DHT22;2310;49.978;8.742;2023-06-10T15:50:39;31.90;37.90
4596;DHT22;2310;49.978;8.742;2023-06-10T15:54:41;32.40;37.30
4596;DHT22;2310;49.978;8.742;2023-06-10T15:58:42;32.20;37.90
4596;DHT22;2310;49.978;8.742;2023-06-10T16:02:46;32.30;37.80
4596;DHT22;2310;49.978;8.742;2023-06-10T16:06:50;31.40;35.50
4596;DHT22;2310;49.978;8.742;2023-06-10T16:10:51;31.10;36.60
4596;DHT22;2310;49.978;8.742;2023-06-10T16:14:53;30.90;37.30
4596;DHT22;2310;49.978;8.742;2023-06-10T16:18:54;30.70;37.50
4596;DHT22;2310;49.978;8.742;2023-06-10T16:22:56;30.40;38.70
4596;DHT22;2310;49.978;8.742;2023-06-10T16:26:58;30.00;39.20
4596;DHT22;2310;49.978;8.742;2023-06-10T16:31:00;29.90;40.20
4596;DHT22;2310;49.978;8.742;2023-06-10T16:35:01;29.70;40.40
4596;DHT22;2310;49.978;8.742;2023-06-10T16:39:03;29.60;40.60
4596;DHT22;2310;49.978;8.742;2023-06-10T16:43:04;29.60;41.40
4596;DHT22;2310;49.978;8.742;2023-06-10T16:47:06;29.50;41.00
4596;DHT22;2310;49.978;8.742;2023-06-10T16:51:07;29.70;41.60
4596;DHT22;2310;49.978;8.742;2023-06-10T16:55:09;30.10;41.80
4596;DHT22;2310;49.978;8.742;2023-06-10T16:59:11;30.30;41.40
4596;DHT22;2310;49.978;8.742;2023-06-10T17:03:13;30.50;41.80
4596;DHT22;2310;49.978;8.742;2023-06-10T17:07:15;30.70;41.00
4596;DHT22;2310;49.978;8.742;2023-06-10T17:11:18;30.60;42.30
4596;DHT22;2310;49.978;8.742;2023-06-10T17:15:19;30.10;43.90
4596;DHT22;2310;49.978;8.742;2023-06-10T17:19:21;29.60;44.90
4596;DHT22;2310;49.978;8.742;2023-06-10T17:23:23;29.30;46.10
4596;DHT22;2310;49.978;8.742;2023-06-10T17:27:24;28.80;46.80
4596;DHT22;2310;49.978;8.742;2023-06-10T17:31:27;28.70;47.00
4596;DHT22;2310;49.978;8.742;2023-06-10T17:35:28;28.60;47.80
4596;DHT22;2310;49.978;8.742;2023-06-10T17:39:30;28.30;48.60
4596;DHT22;2310;49.978;8.742;2023-06-10T17:43:31;28.40;49.10
4596;DHT22;2310;49.978;8.742;2023-06-10T17:47:37;28.30;50.00
4596;DHT22;2310;49.978;8.742;2023-06-10T17:51:40;28.50;50.20
4596;DHT22;2310;49.978;8.742;2023-06-10T17:55:41;28.60;50.20
4596;DHT22;2310;49.978;8.742;2023-06-10T17:59:43;28.60;50.80
4596;DHT22;2310;49.978;8.742;2023-06-10T18:03:44;28.70;51.20
4596;DHT22;2310;49.978;8.742;2023-06-10T18:07:46;28.90;51.60
4596;DHT22;2310;49.978;8.742;2023-06-10T18:11:47;28.80;51.00
4596;DHT22;2310;49.978;8.742;2023-06-10T18:15:48;28.60;51.90
4596;DHT22;2310;49.978;8.742;2023-06-10T18:19:50;28.10;52.40
4596;DHT22;2310;49.978;8.742;2023-06-10T18:23:53;27.80;53.20
4596;DHT22;2310;49.978;8.742;2023-06-10T18:27:55;27.60;54.20
4596;DHT22;2310;49.978;8.742;2023-06-10T18:31:56;27.70;55.00
4596;DHT22;2310;49.978;8.742;2023-06-10T18:36:00;27.70;55.10
4596;DHT22;2310;49.978;8.742;2023-06-10T18:40:02;27.80;58.00
4596;DHT22;2310;49.978;8.742;2023-06-10T18:44:03;28.00;57.80
4596;DHT22;2310;49.978;8.742;2023-06-10T18:48:05;28.00;56.20
4596;DHT22;2310;49.978;8.742;2023-06-10T18:52:07;28.00;57.50
4596;DHT22;2310;49.978;8.742;2023-06-10T18:56:08;27.80;57.90
4596;DHT22;2310;49.978;8.742;2023-06-10T19:00:12;27.40;58.80
4596;DHT22;2310;49.978;8.742;2023-06-10T19:04:14;27.20;60.90
4596;DHT22;2310;49.978;8.742;2023-06-10T19:08:16;27.20;61.80
4596;DHT22;2310;49.978;8.742;2023-06-10T19:12:18;27.20;63.10
4596;DHT22;2310;49.978;8.742;2023-06-10T19:16:20;27.10;63.70
4596;DHT22;2310;49.978;8.742;2023-06-10T19:20:22;27.30;64.00
4596;DHT22;2310;49.978;8.742;2023-06-10T19:24:23;27.40;63.60
4596;DHT22;2310;49.978;8.742;2023-06-10T19:28:25;27.50;63.60
4596;DHT22;2310;49.978;8.742;2023-06-10T19:32:27;27.30;64.10
4596;DHT22;2310;49.978;8.742;2023-06-10T19:36:28;27.00;65.80
4596;DHT22;2310;49.978;8.742;2023-06-10T19:40:30;26.80;68.00
4596;DHT22;2310;49.978;8.742;2023-06-10T19:44:31;26.80;68.40
4596;DHT22;2310;49.978;8.742;2023-06-10T19:48:32;27.00;69.00
4596;DHT22;2310;49.978;8.742;2023-06-10T19:52:34;27.10;69.40
4596;DHT22;2310;49.978;8.742;2023-06-10T19:56:35;27.20;70.00
4596;DHT22;2310;49.978;8.742;2023-06-10T20:00:37;27.00;69.80
4596;DHT22;2310;49.978;8.742;2023-06-10T20:04:38;27.20;72.20
4596;DHT22;2310;49.978;8.742;2023-06-10T20:08:42;27.20;70.00
4596;DHT22;2310;49.978;8.742;2023-06-10T20:12:43;27.10;71.50
4596;DHT22;2310;49.978;8.742;2023-06-10T20:16:45;27.10;70.30
4596;DHT22;2310;49.978;8.742;2023-06-10T20:20:47;26.80;72.20
4596;DHT22;2310;49.978;8.742;2023-06-10T20:24:50;26.70;75.40
4596;DHT22;2310;49.978;8.742;2023-06-10T20:28:54;26.40;78.50
4596;DHT22;2310;49.978;8.742;2023-06-10T20:32:55;26.10;83.20
4596;DHT22;2310;49.978;8.742;2023-06-10T20:36:57;25.90;87.10
4596;DHT22;2310;49.978;8.742;2023-06-10T20:40:58;25.90;89.50
4596;DHT22;2310;49.978;8.742;2023-06-10T20:45:00;25.90;88.60
4596;DHT22;2310;49.978;8.742;2023-06-10T20:49:01;25.90;89.20
4596;DHT22;2310;49.978;8.742;2023-06-10T20:53:03;26.00;88.10
4596;DHT22;2310;49.978;8.742;2023-06-10T20:57:05;26.00;88.40
4596;DHT22;2310;49.978;8.742;2023-06-10T21:01:07;26.20;87.40
4596;DHT22;2310;49.978;8.742;2023-06-10T21:05:10;26.20;84.60
4596;DHT22;2310;49.978;8.742;2023-06-10T21:09:13;26.10;87.70
4596;DHT22;2310;49.978;8.742;2023-06-10T21:13:14;26.10;87.10
4596;DHT22;2310;49.978;8.742;2023-06-10T21:17:16;26.00;90.10
4596;DHT22;2310;49.978;8.742;2023-06-10T21:21:18;26.00;88.70
4596;DHT22;2310;49.978;8.742;2023-06-10T21:25:20;25.90;89.40
4596;DHT22;2310;49.978;8.742;2023-06-10T21:29:23;25.90;90.30
4596;DHT22;2310;49.978;8.742;2023-06-10T21:33:24;25.90;89.40
4596;DHT22;2310;49.978;8.742;2023-06-10T21:37:35;25.80;90.30
4596;DHT22;2310;49.978;8.742;2023-06-10T21:41:34;25.50;91.80
4596;DHT22;2310;49.978;8.742;2023-06-10T21:45:36;25.40;93.00
4596;DHT22;2310;49.978;8.742;2023-06-10T21:49:37;25.30;93.70
4596;DHT22;2310;49.978;8.742;2023-06-10T21:53:39;25.20;94.70
4596;DHT22;2310;49.978;8.742;2023-06-10T21:57:41;25.20;95.00
4596;DHT22;2310;49.978;8.742;2023-06-10T22:01:42;25.10;95.60
4596;DHT22;2310;49.978;8.742;2023-06-10T22:05:44;25.20;95.30
4596;DHT22;2310;49.978;8.742;2023-06-10T22:09:47;25.20;95.10
4596;DHT22;2310;49.978;8.742;2023-06-10T22:13:50;25.10;94.80
4596;DHT22;2310;49.978;8.742;2023-06-10T22:17:51;25.20;95.90
4596;DHT22;2310;49.978;8.742;2023-06-10T22:21:53;24.90;97.10
4596;DHT22;2310;49.978;8.742;2023-06-10T22:25:54;24.90;97.10
4596;DHT22;2310;49.978;8.742;2023-06-10T22:29:55;24.90;97.30
4596;DHT22;2310;49.978;8.742;2023-06-10T22:33:57;24.70;98.40
4596;DHT22;2310;49.978;8.742;2023-06-10T22:37:58;24.60;99.20
4596;DHT22;2310;49.978;8.742;2023-06-10T22:42:00;24.50;99.50
4596;DHT22;2310;49.978;8.742;2023-06-10T22:46:01;24.30;99.90
4596;DHT22;2310;49.978;8.742;2023-06-10T22:50:03;24.20;99.90
4596;DHT22;2310;49.978;8.742;2023-06-10T22:54:05;24.10;99.90
4596;DHT22;2310;49.978;8.742;2023-06-10T22:58:06;23.90;99.90
4596;DHT22;2310;49.978;8.742;2023-06-10T23:02:07;23.80;99.90
4596;DHT22;2310;49.978;8.742;2023-06-10T23:06:09;23.80;99.90
4596;DHT22;2310;49.978;8.742;2023-06-10T23:10:10;23.80;99.90
4596;DHT22;2310;49.978;8.742;2023-06-10T23:14:12;23.90;99.90
4596;DHT22;2310;49.978;8.742;2023-06-10T23:18:13;23.90;99.90
4596;DHT22;2310;49.978;8.742;2023-06-10T23:22:15;24.10;99.90
4596;DHT22;2310;49.978;8.742;2023-06-10T23:26:17;23.80;99.90
4596;DHT22;2310;49.978;8.742;2023-06-10T23:30:19;23.60;99.90
4596;DHT22;2310;49.978;8.742;2023-06-10T23:34:21;23.50;99.90
4596;DHT22;2310;49.978;8.742;2023-06-10T23:38:22;23.50;99.90
4596;DHT22;2310;49.978;8.742;2023-06-10T23:42:24;23.40;99.90
4596;DHT22;2310;49.978;8.742;2023-06-10T23:46:26;23.20;99.90
4596;DHT22;2310;49.978;8.742;2023-06-10T23:50:27;23.20;99.90
4596;DHT22;2310;49.978;8.742;2023-06-10T23:54:30;23.30;99.90
4596;DHT22;2310;49.978;8.742;2023-06-10T23:58:32;23.20;99.90
